createdAt,value
2019-02-10T00:00:33.114Z,2.47
2019-02-10T00:03:03.505Z,2.43
2019-02-10T00:05:33.990Z,1.97
2019-02-10T00:08:04.467Z,2.33
2019-02-10T00:10:34.976Z,1.93
2019-02-10T00:13:26.892Z,1.77
2019-02-10T00:15:57.683Z,1.80
2019-02-10T00:18:32.757Z,1.53
2019-02-10T00:21:03.274Z,1.63
2019-02-10T00:23:33.674Z,1.70
2019-02-10T00:26:04.271Z,1.40
2019-02-10T00:28:34.775Z,1.13
2019-02-10T00:31:05.507Z,0.90
2019-02-10T00:33:36.000Z,1.50
2019-02-10T00:36:06.498Z,1.17
2019-02-10T00:38:37.014Z,1.17
2019-02-10T00:41:07.618Z,1.00
2019-02-10T00:43:38.075Z,0.80
2019-02-10T00:46:09.067Z,0.57
2019-02-10T00:48:39.545Z,0.70
2019-02-10T00:51:10.407Z,0.70
2019-02-10T00:53:40.915Z,1.00
2019-02-10T00:56:11.411Z,0.73
2019-02-10T00:58:42.514Z,0.77
2019-02-10T01:01:12.998Z,1.03
2019-02-10T01:03:43.490Z,0.70
2019-02-10T01:06:13.971Z,1.20
2019-02-10T01:08:45.361Z,0.93
2019-02-10T01:11:15.832Z,1.00
2019-02-10T01:13:46.422Z,1.60
2019-02-10T01:16:17.022Z,1.77
2019-02-10T01:19:07.933Z,1.53
2019-02-10T01:21:39.799Z,2.60
2019-02-10T01:24:10.748Z,2.20
2019-02-10T01:26:41.218Z,2.70
2019-02-10T01:29:11.722Z,2.93
2019-02-10T01:31:42.327Z,3.07
2019-02-10T01:34:13.023Z,4.13
2019-02-10T01:36:49.437Z,3.97
2019-02-10T01:39:19.094Z,4.40
2019-02-10T01:41:49.767Z,4.90
2019-02-10T01:44:20.186Z,4.60
2019-02-10T01:46:52.116Z,4.57
2019-02-10T01:49:23.047Z,5.37
2019-02-10T01:51:53.648Z,5.40
2019-02-10T01:54:24.137Z,6.73
2019-02-10T01:56:54.954Z,5.73
2019-02-10T01:59:25.489Z,6.20
2019-02-10T02:01:55.962Z,7.00
2019-02-10T02:04:26.538Z,6.73
2019-02-10T02:06:58.142Z,6.53
2019-02-10T02:09:28.710Z,6.90
2019-02-10T02:11:59.411Z,6.30
2019-02-10T02:14:30.054Z,6.80
2019-02-10T02:17:00.522Z,6.87
2019-02-10T02:19:31.175Z,6.93
2019-02-10T02:22:01.954Z,7.20
2019-02-10T02:24:32.757Z,6.60
2019-02-10T02:27:03.525Z,6.83
2019-02-10T02:29:34.130Z,6.87
2019-02-10T02:32:04.904Z,7.07
2019-02-10T02:34:35.755Z,6.47
2019-02-10T02:37:07.900Z,7.03
2019-02-10T02:39:38.448Z,6.43
2019-02-10T02:42:08.902Z,7.50
2019-02-10T02:44:39.484Z,7.43
2019-02-10T02:47:09.968Z,6.50
2019-02-10T02:49:43.590Z,6.57
2019-02-10T02:52:14.074Z,6.80
2019-02-10T02:54:44.546Z,6.13
2019-02-10T02:57:15.046Z,6.23
2019-02-10T02:59:45.649Z,7.47
2019-02-10T03:02:16.158Z,6.43
2019-02-10T03:04:46.638Z,6.97
2019-02-10T03:07:18.227Z,7.87
2019-02-10T03:09:48.757Z,7.70
2019-02-10T03:12:19.252Z,6.70
2019-02-10T03:14:49.843Z,6.30
2019-02-10T03:17:20.384Z,7.07
2019-02-10T03:19:51.182Z,5.70
2019-02-10T03:22:21.679Z,6.20
2019-02-10T03:24:52.180Z,6.43
2019-02-10T03:27:22.962Z,6.07
2019-02-10T03:29:53.459Z,5.83
2019-02-10T03:32:23.920Z,6.03
2019-02-10T03:34:57.438Z,5.77
2019-02-10T03:37:27.989Z,4.93
2019-02-10T03:39:58.511Z,5.50
2019-02-10T03:42:29.170Z,5.90
2019-02-10T03:44:59.653Z,4.93
2019-02-10T03:47:30.186Z,5.13
2019-02-10T03:50:00.758Z,5.60
2019-02-10T03:52:31.263Z,5.43
2019-02-10T03:55:01.752Z,6.10
2019-02-10T03:57:32.251Z,5.87
2019-02-10T04:00:02.762Z,5.60
2019-02-10T04:02:33.449Z,4.97
2019-02-10T04:05:03.978Z,4.77
2019-02-10T04:07:36.148Z,4.60
2019-02-10T04:10:06.886Z,4.97
2019-02-10T04:12:37.363Z,5.00
2019-02-10T04:15:07.980Z,4.30
2019-02-10T04:17:38.460Z,5.13
2019-02-10T04:20:09.007Z,4.63
2019-02-10T04:22:39.479Z,5.17
2019-02-10T04:25:09.967Z,5.27
2019-02-10T04:27:40.455Z,4.70
2019-02-10T04:30:10.912Z,4.67
2019-02-10T04:32:41.378Z,4.03
2019-02-10T04:35:11.894Z,3.60
2019-02-10T04:37:46.081Z,4.73
2019-02-10T04:40:17.336Z,4.47
2019-02-10T04:42:47.895Z,4.70
2019-02-10T04:45:18.407Z,4.40
2019-02-10T04:47:48.912Z,3.83
2019-02-10T04:50:19.384Z,4.00
2019-02-10T04:52:49.903Z,4.23
2019-02-10T04:55:20.418Z,3.93
2019-02-10T04:57:50.905Z,4.00
2019-02-10T05:00:21.435Z,3.90
2019-02-10T05:02:51.974Z,5.07
2019-02-10T05:05:22.456Z,4.30
2019-02-10T05:07:54.443Z,3.77
2019-02-10T05:10:25.271Z,4.40
2019-02-10T05:12:55.759Z,3.67
2019-02-10T05:15:26.301Z,4.63
2019-02-10T05:17:56.802Z,4.07
2019-02-10T05:20:27.314Z,4.57
2019-02-10T05:22:58.031Z,3.77
2019-02-10T05:25:28.821Z,4.30
2019-02-10T05:27:59.345Z,5.40
2019-02-10T05:30:29.767Z,4.50
2019-02-10T05:33:00.354Z,4.40
2019-02-10T05:35:30.827Z,4.70
2019-02-10T05:38:04.286Z,4.40
2019-02-10T05:40:33.544Z,4.50
2019-02-10T05:43:06.648Z,3.97
2019-02-10T05:45:37.187Z,4.17
2019-02-10T05:48:07.714Z,3.70
2019-02-10T05:50:38.220Z,3.57
2019-02-10T05:53:09.010Z,3.90
2019-02-10T05:55:39.516Z,4.37
2019-02-10T05:58:10.039Z,3.90
2019-02-10T06:00:40.520Z,4.33
2019-02-10T06:03:11.052Z,4.23
2019-02-10T06:05:41.633Z,3.80
2019-02-10T06:08:13.642Z,3.93
2019-02-10T06:10:44.191Z,4.03
2019-02-10T06:13:14.724Z,3.77
2019-02-10T06:15:45.215Z,3.83
2019-02-10T06:18:15.725Z,3.80
2019-02-10T06:20:46.262Z,3.83
2019-02-10T06:23:16.754Z,4.57
2019-02-10T06:25:47.252Z,4.03
2019-02-10T06:28:17.777Z,4.00
2019-02-10T06:30:48.306Z,4.27
2019-02-10T06:33:18.838Z,3.93
2019-02-10T06:35:49.359Z,4.63
2019-02-10T06:38:22.438Z,4.80
2019-02-10T06:40:52.120Z,4.10
2019-02-10T06:43:22.655Z,4.60
2019-02-10T06:45:53.549Z,4.27
2019-02-10T06:48:24.057Z,4.33
2019-02-10T06:50:54.642Z,4.07
2019-02-10T06:53:25.154Z,4.90
2019-02-10T06:55:55.655Z,4.10
2019-02-10T06:58:26.153Z,4.00
2019-02-10T07:01:11.639Z,4.53
2019-02-10T07:03:57.178Z,4.10
2019-02-10T07:06:31.950Z,3.90
2019-02-10T07:09:02.492Z,4.37
2019-02-10T07:11:32.989Z,4.60
2019-02-10T07:14:04.683Z,4.40
2019-02-10T07:16:53.878Z,3.73
2019-02-10T07:20:03.382Z,4.73
2019-02-10T07:22:56.724Z,3.47
2019-02-10T07:25:46.317Z,3.97
2019-02-10T07:28:45.909Z,3.53
2019-02-10T07:31:21.242Z,4.53
2019-02-10T07:34:48.556Z,4.17
2019-02-10T07:37:29.032Z,3.73
2019-02-10T07:40:30.946Z,4.17
2019-02-10T07:43:14.054Z,3.80
2019-02-10T07:46:06.667Z,3.73
2019-02-10T07:49:18.271Z,4.10
2019-02-10T07:52:34.707Z,3.73
2019-02-10T07:55:33.114Z,4.67
2019-02-10T07:58:49.111Z,3.57
2019-02-10T08:02:09.807Z,4.07
2019-02-10T08:05:13.947Z,3.93
2019-02-10T08:08:18.498Z,3.83
2019-02-10T08:11:26.369Z,3.83
2019-02-10T08:14:35.255Z,3.63
2019-02-10T08:17:48.438Z,3.00
2019-02-10T08:21:06.005Z,3.17
2019-02-10T08:24:17.995Z,4.27
2019-02-10T08:27:19.102Z,4.33
2019-02-10T08:30:17.568Z,3.70
2019-02-10T08:33:30.342Z,3.80
2019-02-10T08:36:40.362Z,4.00
2019-02-10T08:39:59.348Z,3.33
2019-02-10T08:43:03.520Z,3.77
2019-02-10T08:46:17.983Z,4.77
2019-02-10T08:49:23.742Z,3.87
2019-02-10T08:52:27.906Z,3.27
2019-02-10T08:55:00.119Z,3.97
2019-02-10T08:57:30.744Z,3.63
2019-02-10T09:00:01.220Z,4.00
2019-02-10T09:02:31.728Z,4.20
2019-02-10T09:05:02.263Z,3.50
2019-02-10T09:07:32.768Z,4.90
2019-02-10T09:10:03.341Z,2.97
2019-02-10T09:12:33.839Z,3.30
2019-02-10T09:15:08.878Z,4.40
2019-02-10T09:17:39.406Z,3.57
2019-02-10T09:20:10.147Z,4.53
2019-02-10T09:22:40.631Z,4.00
2019-02-10T09:25:11.439Z,3.70
2019-02-10T09:27:41.967Z,3.97
2019-02-10T09:30:13.142Z,3.63
2019-02-10T09:32:43.648Z,4.63
2019-02-10T09:35:14.526Z,4.17
2019-02-10T09:37:45.006Z,3.90
2019-02-10T09:40:15.501Z,4.60
2019-02-10T09:42:46.016Z,4.37
2019-02-10T09:45:16.526Z,4.20
2019-02-10T09:47:47.118Z,4.83
2019-02-10T09:50:19.413Z,4.07
2019-02-10T09:52:50.392Z,4.87
2019-02-10T09:55:20.912Z,4.60
2019-02-10T09:57:51.411Z,4.57
2019-02-10T10:00:24.399Z,3.90
2019-02-10T10:02:54.887Z,4.77
2019-02-10T10:05:25.404Z,4.70
2019-02-10T10:07:55.896Z,3.93
2019-02-10T10:10:26.411Z,5.33
2019-02-10T10:12:56.939Z,4.27
2019-02-10T10:15:27.444Z,5.83
2019-02-10T10:17:57.922Z,4.43
2019-02-10T10:20:28.441Z,4.47
2019-02-10T10:22:59.263Z,5.03
2019-02-10T10:25:29.734Z,4.80
2019-02-10T10:28:00.243Z,3.97
2019-02-10T10:30:30.725Z,4.30
2019-02-10T10:33:01.259Z,4.27
2019-02-10T10:35:31.737Z,4.03
2019-02-10T10:38:02.241Z,4.63
2019-02-10T10:40:32.746Z,4.40
2019-02-10T10:43:03.243Z,4.67
2019-02-10T10:45:34.041Z,4.20
2019-02-10T10:48:04.559Z,3.70
2019-02-10T10:50:35.035Z,4.60
2019-02-10T10:53:05.812Z,3.93
2019-02-10T10:55:36.272Z,5.00
2019-02-10T10:58:06.791Z,4.30
2019-02-10T11:00:37.374Z,3.73
2019-02-10T11:03:07.871Z,3.80
2019-02-10T11:05:38.371Z,4.40
2019-02-10T11:08:08.896Z,4.63
2019-02-10T11:10:39.360Z,4.37
2019-02-10T11:13:09.971Z,4.30
2019-02-10T11:15:40.530Z,4.87
2019-02-10T11:18:11.053Z,4.80
2019-02-10T11:20:41.546Z,4.73
2019-02-10T11:23:15.947Z,5.07
2019-02-10T11:25:46.467Z,5.13
2019-02-10T11:28:16.986Z,4.47
2019-02-10T11:30:50.475Z,4.73
2019-02-10T11:33:20.981Z,4.60
2019-02-10T11:35:51.480Z,4.57
2019-02-10T11:38:22.397Z,4.83
2019-02-10T11:40:52.876Z,4.90
2019-02-10T11:43:25.305Z,5.43
2019-02-10T11:45:55.887Z,4.60
2019-02-10T11:48:26.798Z,5.43
2019-02-10T11:50:57.327Z,4.60
2019-02-10T11:53:27.868Z,4.43
2019-02-10T11:55:58.396Z,5.07
2019-02-10T11:58:28.826Z,4.77
2019-02-10T12:00:59.979Z,5.20
2019-02-10T12:03:30.489Z,5.37
2019-02-10T12:06:00.974Z,5.13
2019-02-10T12:08:35.639Z,5.37
2019-02-10T12:11:03.596Z,5.57
2019-02-10T12:13:34.128Z,5.57
2019-02-10T12:16:04.637Z,6.37
2019-02-10T12:18:35.689Z,5.83
2019-02-10T12:21:06.186Z,6.07
2019-02-10T12:23:36.707Z,5.50
2019-02-10T12:26:11.675Z,5.40
2019-02-10T12:28:42.230Z,6.10
2019-02-10T12:31:12.726Z,6.53
2019-02-10T12:33:43.207Z,6.27
2019-02-10T12:36:13.947Z,6.53
2019-02-10T12:38:44.456Z,6.67
2019-02-10T12:41:14.939Z,6.60
2019-02-10T12:43:45.453Z,6.83
2019-02-10T12:46:16.025Z,6.37
2019-02-10T12:48:46.559Z,6.47
2019-02-10T12:51:17.103Z,7.43
2019-02-10T12:53:49.857Z,6.90
2019-02-10T12:56:20.885Z,6.43
2019-02-10T12:58:51.567Z,6.37
2019-02-10T13:01:22.133Z,7.17
2019-02-10T13:03:52.612Z,7.63
2019-02-10T13:06:23.116Z,8.00
2019-02-10T13:08:54.092Z,6.60
2019-02-10T13:11:24.657Z,5.70
2019-02-10T13:13:55.174Z,6.47
2019-02-10T13:16:25.664Z,8.93
2019-02-10T13:18:56.232Z,6.53
2019-02-10T13:21:26.745Z,7.57
2019-02-10T13:23:57.290Z,6.10
2019-02-10T13:26:27.937Z,6.17
2019-02-10T13:28:58.928Z,6.50
2019-02-10T13:31:29.441Z,6.70
2019-02-10T13:34:00.552Z,5.93
2019-02-10T13:36:31.054Z,7.13
2019-02-10T13:39:01.587Z,6.50
2019-02-10T13:41:37.015Z,5.77
2019-02-10T13:44:07.697Z,7.00
2019-02-10T13:46:38.215Z,6.73
2019-02-10T13:49:08.814Z,7.87
2019-02-10T13:51:39.358Z,6.37
2019-02-10T13:54:09.889Z,7.47
2019-02-10T13:56:40.416Z,6.90
2019-02-10T13:59:11.018Z,6.97
2019-02-10T14:01:41.561Z,7.33
2019-02-10T14:04:12.055Z,7.17
2019-02-10T14:06:42.612Z,6.83
2019-02-10T14:09:13.099Z,6.70
2019-02-10T14:11:43.584Z,6.17
2019-02-10T14:14:14.115Z,6.07
2019-02-10T14:16:44.597Z,6.40
2019-02-10T14:19:15.114Z,6.37
2019-02-10T14:21:45.592Z,6.43
2019-02-10T14:24:16.096Z,5.80
2019-02-10T14:26:46.587Z,6.40
2019-02-10T14:29:17.200Z,5.83
2019-02-10T14:31:47.730Z,5.37
2019-02-10T14:34:18.215Z,6.00
2019-02-10T14:36:48.728Z,6.83
2019-02-10T14:39:19.267Z,5.93
2019-02-10T14:41:49.791Z,5.53
2019-02-10T14:44:20.302Z,5.27
2019-02-10T14:46:50.794Z,5.87
2019-02-10T14:49:21.419Z,6.03
2019-02-10T14:51:54.345Z,5.67
2019-02-10T14:54:25.002Z,6.70
2019-02-10T14:56:55.432Z,6.03
2019-02-10T14:59:25.962Z,5.97
2019-02-10T15:01:56.832Z,6.37
2019-02-10T15:04:27.346Z,5.13
2019-02-10T15:06:57.832Z,6.57
2019-02-10T15:09:28.399Z,5.77
2019-02-10T15:11:59.998Z,5.37
2019-02-10T15:14:30.415Z,4.93
2019-02-10T15:17:01.223Z,5.93
2019-02-10T15:19:31.770Z,4.77
2019-02-10T15:22:02.278Z,4.77
2019-02-10T15:24:32.795Z,4.10
2019-02-10T15:27:03.678Z,5.10
2019-02-10T15:29:34.195Z,4.60
2019-02-10T15:32:04.718Z,4.70
2019-02-10T15:34:35.229Z,4.60
2019-02-10T15:37:08.747Z,4.40
2019-02-10T15:39:39.250Z,4.13
2019-02-10T15:42:09.804Z,3.60
2019-02-10T15:44:40.238Z,3.80
2019-02-10T15:47:10.810Z,4.13
2019-02-10T15:49:41.304Z,3.73
2019-02-10T15:52:11.891Z,3.20
2019-02-10T15:54:42.386Z,3.00
2019-02-10T15:57:12.867Z,3.30
2019-02-10T15:59:43.326Z,3.03
2019-02-10T16:02:14.230Z,3.00
2019-02-10T16:04:44.712Z,2.80
2019-02-10T16:07:15.527Z,3.20
2019-02-10T16:09:46.038Z,2.50
2019-02-10T16:12:16.503Z,3.00
2019-02-10T16:14:47.359Z,2.10
2019-02-10T16:17:17.863Z,2.33
2019-02-10T16:19:48.322Z,2.27
2019-02-10T16:22:20.418Z,2.70
2019-02-10T16:24:50.960Z,2.00
2019-02-10T16:27:21.506Z,2.60
2019-02-10T16:29:51.998Z,2.40
2019-02-10T16:32:22.799Z,2.07
2019-02-10T16:34:53.552Z,2.27
2019-02-10T16:37:24.395Z,2.20
2019-02-10T16:39:57.066Z,2.20
2019-02-10T16:42:27.597Z,2.30
2019-02-10T16:44:58.107Z,2.47
2019-02-10T16:47:28.608Z,2.20
2019-02-10T16:49:59.458Z,2.50
2019-02-10T16:52:30.007Z,2.37
2019-02-10T16:55:01.419Z,2.23
2019-02-10T16:57:32.271Z,2.63
2019-02-10T17:00:02.783Z,2.00
2019-02-10T17:02:33.295Z,2.10
2019-02-10T17:05:04.165Z,2.07
2019-02-10T17:07:34.693Z,2.50
2019-02-10T17:10:05.295Z,2.53
2019-02-10T17:12:36.092Z,3.07
2019-02-10T17:15:07.364Z,2.80
2019-02-10T17:17:37.873Z,3.20
2019-02-10T17:20:09.280Z,3.27
2019-02-10T17:22:40.710Z,3.00
2019-02-10T17:25:13.468Z,3.60
2019-02-10T17:27:43.975Z,3.37
2019-02-10T17:30:14.939Z,3.17
2019-02-10T17:32:45.531Z,3.50
2019-02-10T17:35:16.097Z,3.50
2019-02-10T17:37:46.718Z,3.20
2019-02-10T17:40:21.179Z,2.80
2019-02-10T17:42:51.998Z,2.90
2019-02-10T17:45:24.381Z,2.87
2019-02-10T17:47:55.272Z,2.70
2019-02-10T17:50:25.794Z,2.60
2019-02-10T17:52:56.515Z,3.23
2019-02-10T17:55:27.022Z,2.80
2019-02-10T17:57:57.580Z,2.83
2019-02-10T18:00:31.804Z,3.10
2019-02-10T18:03:02.319Z,3.07
2019-02-10T18:05:32.931Z,3.03
2019-02-10T18:08:03.468Z,2.83
2019-02-10T18:10:33.995Z,2.53
2019-02-10T18:13:04.518Z,2.73
2019-02-10T18:15:43.264Z,2.63
2019-02-10T18:18:29.296Z,2.60
2019-02-10T18:21:17.407Z,2.93
2019-02-10T18:24:09.987Z,3.07
2019-02-10T18:27:02.211Z,3.30
2019-02-10T18:30:00.713Z,2.67
2019-02-10T18:33:08.150Z,2.77
2019-02-10T18:35:47.866Z,2.70
2019-02-10T18:38:43.177Z,2.70
2019-02-10T18:41:41.676Z,2.53
2019-02-10T18:44:27.171Z,2.57
2019-02-10T18:47:25.668Z,2.50
2019-02-10T18:50:33.272Z,2.40
2019-02-10T18:53:14.481Z,2.93
2019-02-10T18:56:21.991Z,2.27
2019-02-10T18:59:11.863Z,2.47
2019-02-10T19:01:59.470Z,2.40
2019-02-10T19:05:07.173Z,2.30
2019-02-10T19:08:02.556Z,2.30
2019-02-10T19:10:52.039Z,2.47
2019-02-10T19:13:38.843Z,2.80
2019-02-10T19:16:28.427Z,2.20
2019-02-10T19:19:16.675Z,2.80
2019-02-10T19:22:06.123Z,2.67
2019-02-10T19:24:54.024Z,2.87
2019-02-10T19:27:41.055Z,2.90
2019-02-10T19:30:36.487Z,2.87
2019-02-10T19:33:31.947Z,2.40
2019-02-10T19:36:27.006Z,2.20
2019-02-10T19:39:25.612Z,2.03
2019-02-10T19:42:11.623Z,2.07
2019-02-10T19:44:59.883Z,2.67
2019-02-10T19:47:56.810Z,2.30
2019-02-10T19:50:37.220Z,2.70
2019-02-10T19:53:22.616Z,2.20
2019-02-10T19:56:12.098Z,2.50
2019-02-10T19:58:58.660Z,2.30
2019-02-10T20:01:46.552Z,2.03
2019-02-10T20:04:38.779Z,2.13
2019-02-10T20:07:31.020Z,2.00
2019-02-10T20:10:30.244Z,1.90
2019-02-10T20:13:10.099Z,1.60
2019-02-10T20:15:46.785Z,1.90
2019-02-10T20:18:39.125Z,1.50
2019-02-10T20:21:24.468Z,1.70
2019-02-10T20:24:13.916Z,1.83
2019-02-10T20:27:09.693Z,1.50
2019-02-10T20:29:49.470Z,1.70
2019-02-10T20:32:37.695Z,1.63
2019-02-10T20:35:42.068Z,1.60
2019-02-10T20:38:19.520Z,1.70
2019-02-10T20:40:58.177Z,2.07
2019-02-10T20:43:50.407Z,1.80
2019-02-10T20:46:37.901Z,2.20
2019-02-10T20:49:33.363Z,1.80
2019-02-10T20:52:30.137Z,1.60
2019-02-10T20:55:05.442Z,1.67
2019-02-10T20:58:03.744Z,1.60
2019-02-10T21:01:05.060Z,1.80
2019-02-10T21:03:53.293Z,1.60
2019-02-10T21:06:29.839Z,1.67
2019-02-10T21:09:16.972Z,1.70
2019-02-10T21:11:58.915Z,1.33
2019-02-10T21:14:40.216Z,1.70
2019-02-10T21:17:17.441Z,1.50
2019-02-10T21:20:04.577Z,1.50
2019-02-10T21:22:50.781Z,1.57
2019-02-10T21:25:52.631Z,1.73
2019-02-10T21:28:33.218Z,1.60
2019-02-10T21:31:25.414Z,1.70
2019-02-10T21:34:05.035Z,1.60
2019-02-10T21:36:54.493Z,1.70
2019-02-10T21:39:53.358Z,2.00
2019-02-10T21:42:36.211Z,1.50
2019-02-10T21:45:13.973Z,1.60
2019-02-10T21:47:51.511Z,1.40
2019-02-10T21:50:21.998Z,1.50
2019-02-10T21:52:52.839Z,1.70
2019-02-10T21:55:23.352Z,1.60
2019-02-10T21:57:53.869Z,1.40
2019-02-10T22:00:28.064Z,1.57
2019-02-10T22:02:58.559Z,1.80
2019-02-10T22:05:29.120Z,1.80
2019-02-10T22:07:59.580Z,1.40
2019-02-10T22:10:30.064Z,1.87
2019-02-10T22:13:00.550Z,1.20
2019-02-10T22:15:31.739Z,1.57
2019-02-10T22:18:03.071Z,1.30
2019-02-10T22:20:33.568Z,1.40
2019-02-10T22:23:04.039Z,1.30
2019-02-10T22:25:34.537Z,1.20
2019-02-10T22:28:05.023Z,1.30
2019-02-10T22:30:35.548Z,1.30
2019-02-10T22:33:06.041Z,1.20
2019-02-10T22:35:36.522Z,1.23
2019-02-10T22:38:07.034Z,1.10
2019-02-10T22:40:37.560Z,1.30
2019-02-10T22:43:08.040Z,1.20
2019-02-10T22:45:38.540Z,1.40
2019-02-10T22:48:09.054Z,1.13
2019-02-10T22:50:39.633Z,1.20
2019-02-10T22:53:10.932Z,1.10
2019-02-10T22:55:41.443Z,1.20
2019-02-10T22:58:11.982Z,1.30
2019-02-10T23:00:50.576Z,1.27
2019-02-10T23:03:21.062Z,1.17
2019-02-10T23:05:51.572Z,1.27
2019-02-10T23:08:22.094Z,1.30
2019-02-10T23:10:52.491Z,1.30
2019-02-10T23:13:22.971Z,1.30
2019-02-10T23:15:53.471Z,1.30
2019-02-10T23:18:24.289Z,1.50
2019-02-10T23:20:54.823Z,1.67
2019-02-10T23:23:25.311Z,1.17
2019-02-10T23:25:55.838Z,1.30
2019-02-10T23:28:26.455Z,1.30
2019-02-10T23:30:56.973Z,1.30
2019-02-10T23:33:27.451Z,1.30
2019-02-10T23:35:57.991Z,1.70
2019-02-10T23:38:28.464Z,1.50
2019-02-10T23:40:58.932Z,1.67
2019-02-10T23:43:29.460Z,1.60
2019-02-10T23:45:59.931Z,1.60
2019-02-10T23:48:30.428Z,1.50
2019-02-10T23:51:01.271Z,1.57
2019-02-10T23:53:31.766Z,1.50
2019-02-10T23:56:03.170Z,1.50
2019-02-10T23:58:33.651Z,1.40
